Tb_john — LJUO — position and weather

sailwx.info

Track history (hours):
 
Tides and Currents Weather Stations Pressure Air Temp Water Temp Dewpoint Dewpoint Depression Visibility Wind Speed Wind Dir Waves Ship Positions

Tb_john

Last reported at 2016-Jun-27 21:34 UTC. Time now 2016-Jun-27 22:18 UTC.
Position N 59°20' E 010°31'.

Length 33 m; draft 5 m.

Type: Tug. MMSI: 259599000.

Date/timePositionNaut miles runAvg speedWind from/ knotsBaromVisibWave heightAir tempDewpointWater temp
2016-Jun-27 21:34N 59°20' E 010°31'0 0.0
2016-Jun-27 20:34N 59°20' E 010°31'0 0.0
2016-Jun-27 19:34N 59°20' E 010°31'0 0.0
2016-Jun-27 18:34N 59°20' E 010°31'0 0.0
2016-Jun-27 17:34N 59°20' E 010°31'0 0.0
2016-Jun-27 16:34N 59°20' E 010°31'0 0.0
2016-Jun-27 15:34N 59°20' E 010°31'0 0.0
2016-Jun-27 14:33N 59°20' E 010°31'0 0.0
2016-Jun-27 13:34N 59°20' E 010°31'0 0.0
2016-Jun-27 12:33N 59°20' E 010°31'0 0.0
2016-Jun-27 11:34N 59°20' E 010°31'0 0.0
2016-Jun-27 10:34N 59°20' E 010°31'0 0.0
2016-Jun-27 09:34N 59°20' E 010°31'1 0.6
2016-Jun-27 08:34N 59°20' E 010°31'1 0.6
2016-Jun-27 07:34N 59°20' E 010°31'0 0.0
2016-Jun-27 06:34N 59°20' E 010°31'0 0.0
2016-Jun-27 05:34N 59°20' E 010°31'0 0.0
2016-Jun-27 04:34N 59°20' E 010°31'0 0.0
2016-Jun-27 03:34N 59°20' E 010°31'0 0.0
2016-Jun-27 02:33N 59°20' E 010°31'0 0.0
2016-Jun-27 01:34N 59°20' E 010°31'0 0.0
2016-Jun-27 00:34N 59°20' E 010°31'0 0.0
2016-Jun-26 23:33N 59°20' E 010°31'0 0.0
2016-Jun-26 22:33N 59°20' E 010°31'0 0.0
2016-Jun-26 21:34N 59°20' E 010°31'0 0.0
2016-Jun-26 20:34N 59°20' E 010°31'0 0.0
2016-Jun-26 19:34N 59°20' E 010°31'0 0.0
2016-Jun-26 18:34N 59°20' E 010°31'0 0.0
2016-Jun-26 17:34N 59°20' E 010°31'0 0.0
2016-Jun-26 16:34N 59°20' E 010°31'0 0.0
2016-Jun-26 15:34N 59°20' E 010°31'0 0.0
2016-Jun-26 14:33N 59°20' E 010°31'0 0.0
2016-Jun-26 13:33N 59°20' E 010°31'0 0.0
2016-Jun-26 12:34N 59°20' E 010°31'0 0.0
2016-Jun-26 11:34N 59°20' E 010°31'0 0.0
2016-Jun-26 10:34N 59°20' E 010°31'0 0.0
2016-Jun-26 09:33N 59°20' E 010°31'0 0.0
2016-Jun-26 08:34N 59°20' E 010°31'0 0.1
2016-Jun-26 07:34N 59°20' E 010°31'0 0.5
2016-Jun-26 06:34N 59°20' E 010°31'3 2.7
2016-Jun-26 05:34N 59°18' E 010°34'8 8.4
2016-Jun-26 04:34N 59°10' E 010°38'9 8.6
2016-Jun-26 03:34N 59°18' E 010°33'2 2.0
2016-Jun-26 02:33N 59°20' E 010°31'0 0.0
2016-Jun-26 01:33N 59°20' E 010°31'0 0.0
2016-Jun-26 00:34N 59°20' E 010°31'0 0.0
2016-Jun-25 23:34N 59°20' E 010°31'0 0.0
2016-Jun-25 22:34N 59°20' E 010°31'0 0.0
2016-Jun-25 21:34N 59°20' E 010°31'0 0.0
2016-Jun-25 20:34N 59°20' E 010°31'0 0.0
2016-Jun-25 19:34N 59°20' E 010°31'0 0.0
2016-Jun-25 18:34N 59°20' E 010°31'0 0.0
2016-Jun-25 17:34N 59°20' E 010°31'0 0.0
2016-Jun-25 16:34N 59°20' E 010°31'0 0.0
2016-Jun-25 15:34N 59°20' E 010°31'0 0.0
2016-Jun-25 14:33N 59°20' E 010°31'0 0.0
2016-Jun-25 13:34N 59°20' E 010°31'0 0.0
2016-Jun-25 12:34N 59°20' E 010°31'0 0.0
2016-Jun-25 11:34N 59°20' E 010°31'0 0.0
2016-Jun-25 10:34N 59°20' E 010°31'0 0.0
2016-Jun-25 09:34N 59°20' E 010°31'0 0.0
2016-Jun-25 08:34N 59°20' E 010°31'0 0.0
2016-Jun-25 07:34N 59°20' E 010°31'0 0.0
2016-Jun-25 06:34N 59°20' E 010°31'0 0.0
2016-Jun-25 05:34N 59°20' E 010°31'0 0.0
2016-Jun-25 04:34N 59°20' E 010°31'0 0.0
2016-Jun-25 03:34N 59°20' E 010°31'0 0.0
2016-Jun-25 02:34N 59°20' E 010°31'0 0.0
2016-Jun-25 01:34N 59°20' E 010°31'0 0.0
2016-Jun-25 00:34N 59°20' E 010°31'0 0.0
2016-Jun-24 23:34N 59°20' E 010°31'0 0.0
2016-Jun-24 22:34N 59°20' E 010°31'0 0.0
2016-Jun-24 21:34N 59°20' E 010°31'0 0.0
2016-Jun-24 20:34N 59°20' E 010°31'0 0.0
2016-Jun-24 19:34N 59°20' E 010°31'0 0.0
2016-Jun-24 18:34N 59°20' E 010°31'0 0.0
2016-Jun-24 17:34N 59°20' E 010°31'0 0.0
2016-Jun-24 16:33N 59°20' E 010°31'0 0.0
2016-Jun-24 15:34N 59°20' E 010°31'0 0.0
2016-Jun-24 14:34N 59°20' E 010°31'0 0.0
2016-Jun-24 13:34N 59°20' E 010°31'0 0.0
2016-Jun-24 12:34N 59°20' E 010°31'0 0.0
2016-Jun-24 11:34N 59°20' E 010°31'0 0.0
2016-Jun-24 10:34N 59°20' E 010°31'0 0.0
2016-Jun-24 09:34N 59°20' E 010°31'0 0.0
2016-Jun-24 08:34N 59°20' E 010°31'0 0.1
2016-Jun-24 07:34N 59°20' E 010°31'0 0.0
2016-Jun-24 04:34N 59°20' E 010°31'0 0.0
2016-Jun-24 03:34N 59°20' E 010°31'0 0.0
2016-Jun-24 02:33N 59°20' E 010°31'0 0.0
2016-Jun-24 01:34N 59°20' E 010°31'0 0.0
2016-Jun-24 00:34N 59°20' E 010°31'0 0.0
2016-Jun-23 23:33N 59°20' E 010°31'0 0.0
2016-Jun-23 22:34N 59°20' E 010°31'5 4.9
2016-Jun-23 21:34N 59°15' E 010°35'1 0.9
2016-Jun-23 20:33N 59°16' E 010°34'4 4.1
2016-Jun-23 19:33N 59°20' E 010°31'0 0.1
2016-Jun-23 18:34N 59°20' E 010°31'0 0.0
2016-Jun-23 17:34N 59°20' E 010°31'0 0.0
2016-Jun-23 16:34N 59°20' E 010°31'0 0.0
2016-Jun-23 15:34N 59°20' E 010°31'0 0.0
2016-Jun-23 14:34N 59°20' E 010°31'1 0.9
2016-Jun-23 13:34N 59°20' E 010°31'1 0.9
2016-Jun-23 12:34N 59°20' E 010°31'0 0.0
2016-Jun-23 11:34N 59°20' E 010°31'0 0.0
2016-Jun-23 10:34N 59°20' E 010°31'0 0.0
2016-Jun-23 09:34N 59°20' E 010°31'0 0.0
2016-Jun-23 08:34N 59°20' E 010°31'0 0.0
2016-Jun-23 07:34N 59°20' E 010°31'0 0.0
2016-Jun-23 05:33N 59°20' E 010°31'0 0.0
2016-Jun-23 04:34N 59°20' E 010°31'0 0.0
2016-Jun-23 03:34N 59°20' E 010°31'0 0.0
2016-Jun-23 02:34N 59°20' E 010°31'0 0.0
2016-Jun-23 01:34N 59°20' E 010°31'0 0.0
2016-Jun-23 00:34N 59°20' E 010°31'0 0.0
2016-Jun-22 23:34N 59°20' E 010°31'0 0.0
2016-Jun-22 22:34N 59°20' E 010°31'0 0.0
2016-Jun-22 21:34N 59°20' E 010°31'0 0.0
2016-Jun-22 20:34N 59°20' E 010°31'0 0.0
2016-Jun-22 19:34N 59°20' E 010°31'0 0.0
2016-Jun-22 18:34N 59°20' E 010°31'0 0.0
2016-Jun-22 17:34N 59°20' E 010°31'0 0.1
2016-Jun-22 16:34N 59°20' E 010°31'1 1.0
2016-Jun-22 15:34N 59°20' E 010°32'1 1.1
2016-Jun-22 14:34N 59°20' E 010°31'0 0.0
2016-Jun-22 13:34N 59°20' E 010°31'0 0.0
2016-Jun-22 12:34N 59°20' E 010°31'0 0.0
2016-Jun-22 11:34N 59°20' E 010°31'0 0.0
2016-Jun-22 10:34N 59°20' E 010°31'0 0.0
2016-Jun-22 09:34N 59°20' E 010°31'0 0.0
2016-Jun-22 08:34N 59°20' E 010°31'0 0.0
2016-Jun-22 07:34N 59°20' E 010°31'0 0.0
2016-Jun-22 06:34N 59°20' E 010°31'0 0.0
2016-Jun-22 05:34N 59°20' E 010°31'0 0.0
2016-Jun-22 04:33N 59°20' E 010°31'0 0.0
2016-Jun-22 03:34N 59°20' E 010°31'0 0.0
2016-Jun-22 02:34N 59°20' E 010°31'0 0.0
2016-Jun-22 01:34N 59°20' E 010°31'0 0.0
2016-Jun-22 00:34N 59°20' E 010°31'0 0.0
2016-Jun-21 23:34N 59°20' E 010°31'0 0.0
2016-Jun-21 22:34N 59°20' E 010°31'0 0.0
2016-Jun-21 21:33N 59°20' E 010°31'0 0.0
2016-Jun-21 20:34N 59°20' E 010°31'0 0.0
2016-Jun-21 19:34N 59°20' E 010°31'0 0.0
2016-Jun-21 18:34N 59°20' E 010°31'0 0.0
2016-Jun-21 17:34N 59°20' E 010°31'0 0.0
2016-Jun-21 16:34N 59°20' E 010°31'0 0.0
2016-Jun-21 15:34N 59°20' E 010°31'0 0.0
2016-Jun-21 14:34N 59°20' E 010°31'0 0.0
2016-Jun-21 13:33N 59°20' E 010°31'0 0.0
2016-Jun-21 12:34N 59°20' E 010°31'0 0.0
2016-Jun-21 11:34N 59°20' E 010°31'0 0.0
2016-Jun-21 10:34N 59°20' E 010°31'0 0.0
2016-Jun-21 09:34N 59°20' E 010°31'0 0.0
2016-Jun-21 08:33N 59°20' E 010°31'0 0.0
2016-Jun-21 07:34N 59°20' E 010°31'0 0.0
2016-Jun-21 05:33N 59°20' E 010°31'0 0.0
2016-Jun-21 04:34N 59°20' E 010°31'0 0.0
2016-Jun-21 03:34N 59°20' E 010°31'0 0.0
2016-Jun-21 02:34N 59°20' E 010°31'0 0.0
2016-Jun-21 01:34N 59°20' E 010°31'0 0.0
2016-Jun-21 00:34N 59°20' E 010°31'0 0.0
2016-Jun-20 23:34N 59°20' E 010°31'0 0.2
2016-Jun-20 22:34N 59°20' E 010°31'0 0.2
2016-Jun-20 21:34N 59°20' E 010°31'0 0.0
2016-Jun-20 20:34N 59°20' E 010°31'0 0.1
2016-Jun-20 19:34N 59°20' E 010°31'1 0.7
2016-Jun-20 18:34N 59°20' E 010°30'3 2.6
2016-Jun-20 17:34N 59°23' E 010°30'2 2.4
2016-Jun-20 16:34N 59°21' E 010°32'1 1.4
2016-Jun-20 15:34N 59°20' E 010°31'0 0.0
2016-Jun-20 14:34N 59°20' E 010°31'0 0.0
2016-Jun-20 13:34N 59°20' E 010°31'0 0.0
2016-Jun-20 12:34N 59°20' E 010°31'0 0.0
2016-Jun-20 11:34N 59°20' E 010°31'0 0.0
2016-Jun-20 10:34N 59°20' E 010°31'0 0.0
2016-Jun-20 09:34N 59°20' E 010°31'0 0.0
2016-Jun-20 08:34N 59°20' E 010°31'0 0.0
2016-Jun-20 07:33N 59°20' E 010°31'0 0.0
2016-Jun-20 06:34N 59°20' E 010°31'0 0.0
2016-Jun-20 05:34N 59°20' E 010°31'0 0.3
2016-Jun-20 04:34N 59°20' E 010°31'0 0.3
2016-Jun-20 03:34N 59°20' E 010°31'0 0.0
2016-Jun-20 02:34N 59°20' E 010°31'0 0.0
2016-Jun-20 01:34N 59°20' E 010°31'0 0.0
2016-Jun-20 00:34N 59°20' E 010°31'0 0.0
2016-Jun-19 23:34N 59°20' E 010°31'0 0.0
2016-Jun-19 22:34N 59°20' E 010°31'0 0.0
2016-Jun-19 21:34N 59°20' E 010°31'0 0.0
2016-Jun-19 20:34N 59°20' E 010°31'0 0.0
2016-Jun-19 19:34N 59°20' E 010°31'0 0.0
2016-Jun-19 18:34N 59°20' E 010°31'0 0.0
2016-Jun-19 17:34N 59°20' E 010°31'0 0.0
2016-Jun-19 16:34N 59°20' E 010°31'0 0.0
2016-Jun-19 15:34N 59°20' E 010°31'0 0.0
2016-Jun-19 14:34N 59°20' E 010°31'0 0.0
2016-Jun-19 13:34N 59°20' E 010°31'0 0.0
2016-Jun-19 12:34N 59°20' E 010°31'0 0.0
2016-Jun-19 11:33N 59°20' E 010°31'0 0.0
2016-Jun-19 10:34N 59°20' E 010°31'0 0.0
2016-Jun-19 09:34N 59°20' E 010°31'0 0.0
2016-Jun-19 08:33N 59°20' E 010°31'0 0.0
2016-Jun-19 07:34N 59°20' E 010°31'0 0.0
2016-Jun-19 06:33N 59°20' E 010°31'0 0.0
2016-Jun-19 05:34N 59°20' E 010°31'0 0.0
2016-Jun-19 04:34N 59°20' E 010°31'0 0.0
2016-Jun-19 03:34N 59°20' E 010°31'2 2.4
2016-Jun-19 02:33N 59°18' E 010°34'3 3.4
2016-Jun-19 01:34N 59°14' E 010°36'6 5.7
2016-Jun-19 00:34N 59°20' E 010°31'0 0.4
2016-Jun-18 23:34N 59°20' E 010°32'3 3.3
2016-Jun-18 22:34N 59°17' E 010°35'7 6.8
2016-Jun-18 21:34N 59°10' E 010°40'6 5.9
2016-Jun-18 20:34N 59°16' E 010°35'4 4.3
2016-Jun-18 19:34N 59°20' E 010°31'1 0.8
2016-Jun-18 18:34N 59°20' E 010°31'1 0.8
2016-Jun-18 17:34N 59°20' E 010°31'0 0.0
2016-Jun-18 16:34N 59°20' E 010°31'0 0.0
2016-Jun-18 15:34N 59°20' E 010°31'0 0.0
2016-Jun-18 14:34N 59°20' E 010°31'0 0.0
2016-Jun-18 13:34N 59°20' E 010°31'0 0.0
2016-Jun-18 12:34N 59°20' E 010°31'0 0.0
2016-Jun-18 11:34N 59°20' E 010°31'0 0.0
2016-Jun-18 10:34N 59°20' E 010°31'1 0.9
2016-Jun-18 09:34N 59°20' E 010°32'1 0.9
2016-Jun-18 08:34N 59°20' E 010°31'0 0.0
2016-Jun-18 07:34N 59°20' E 010°31'0 0.0
2016-Jun-18 06:34N 59°20' E 010°31'0 0.0
2016-Jun-18 05:34N 59°20' E 010°31'0 0.0
2016-Jun-18 04:34N 59°20' E 010°31'0 0.0
2016-Jun-18 03:34N 59°20' E 010°31'0 0.0
2016-Jun-18 02:34N 59°20' E 010°31'0 0.0
2016-Jun-18 01:34N 59°20' E 010°31'0 0.0
2016-Jun-18 00:34N 59°20' E 010°31'0 0.0
2016-Jun-17 23:34N 59°20' E 010°31'0 0.3
2016-Jun-17 22:34N 59°20' E 010°31'0 0.3
2016-Jun-17 21:34N 59°20' E 010°31'  
Track history (hours):
 
Tides and Currents Weather Stations Pressure Air Temp Water Temp Dewpoint Dewpoint Depression Visibility Wind Speed Wind Dir Waves Ship Positions

Tb_john

Last reported at 2016-Jun-27 21:34 UTC. Time now 2016-Jun-27 22:18 UTC.
Position N 59°20' E 010°31'.

Length 33 m; draft 5 m.

Type: Tug. MMSI: 259599000.

Date/timePositionNaut miles runAvg speedWind from/ knotsBaromVisibWave heightAir tempDewpointWater temp
2016-Jun-27 21:34N 59°20' E 010°31'0 0.0
2016-Jun-27 20:34N 59°20' E 010°31'0 0.0
2016-Jun-27 19:34N 59°20' E 010°31'0 0.0
2016-Jun-27 18:34N 59°20' E 010°31'0 0.0
2016-Jun-27 17:34N 59°20' E 010°31'0 0.0
2016-Jun-27 16:34N 59°20' E 010°31'0 0.0
2016-Jun-27 15:34N 59°20' E 010°31'0 0.0
2016-Jun-27 14:33N 59°20' E 010°31'0 0.0
2016-Jun-27 13:34N 59°20' E 010°31'0 0.0
2016-Jun-27 12:33N 59°20' E 010°31'0 0.0
2016-Jun-27 11:34N 59°20' E 010°31'0 0.0
2016-Jun-27 10:34N 59°20' E 010°31'0 0.0
2016-Jun-27 09:34N 59°20' E 010°31'1 0.6
2016-Jun-27 08:34N 59°20' E 010°31'1 0.6
2016-Jun-27 07:34N 59°20' E 010°31'0 0.0
2016-Jun-27 06:34N 59°20' E 010°31'0 0.0
2016-Jun-27 05:34N 59°20' E 010°31'0 0.0
2016-Jun-27 04:34N 59°20' E 010°31'0 0.0
2016-Jun-27 03:34N 59°20' E 010°31'0 0.0
2016-Jun-27 02:33N 59°20' E 010°31'0 0.0
2016-Jun-27 01:34N 59°20' E 010°31'0 0.0
2016-Jun-27 00:34N 59°20' E 010°31'0 0.0
2016-Jun-26 23:33N 59°20' E 010°31'0 0.0
2016-Jun-26 22:33N 59°20' E 010°31'0 0.0
2016-Jun-26 21:34N 59°20' E 010°31'0 0.0
2016-Jun-26 20:34N 59°20' E 010°31'0 0.0
2016-Jun-26 19:34N 59°20' E 010°31'0 0.0
2016-Jun-26 18:34N 59°20' E 010°31'0 0.0
2016-Jun-26 17:34N 59°20' E 010°31'0 0.0
2016-Jun-26 16:34N 59°20' E 010°31'0 0.0
2016-Jun-26 15:34N 59°20' E 010°31'0 0.0
2016-Jun-26 14:33N 59°20' E 010°31'0 0.0
2016-Jun-26 13:33N 59°20' E 010°31'0 0.0
2016-Jun-26 12:34N 59°20' E 010°31'0 0.0
2016-Jun-26 11:34N 59°20' E 010°31'0 0.0
2016-Jun-26 10:34N 59°20' E 010°31'0 0.0
2016-Jun-26 09:33N 59°20' E 010°31'0 0.0
2016-Jun-26 08:34N 59°20' E 010°31'0 0.1
2016-Jun-26 07:34N 59°20' E 010°31'0 0.5
2016-Jun-26 06:34N 59°20' E 010°31'3 2.7
2016-Jun-26 05:34N 59°18' E 010°34'8 8.4
2016-Jun-26 04:34N 59°10' E 010°38'9 8.6
2016-Jun-26 03:34N 59°18' E 010°33'2 2.0
2016-Jun-26 02:33N 59°20' E 010°31'0 0.0
2016-Jun-26 01:33N 59°20' E 010°31'0 0.0
2016-Jun-26 00:34N 59°20' E 010°31'0 0.0
2016-Jun-25 23:34N 59°20' E 010°31'0 0.0
2016-Jun-25 22:34N 59°20' E 010°31'0 0.0
2016-Jun-25 21:34N 59°20' E 010°31'0 0.0
2016-Jun-25 20:34N 59°20' E 010°31'0 0.0
2016-Jun-25 19:34N 59°20' E 010°31'0 0.0
2016-Jun-25 18:34N 59°20' E 010°31'0 0.0
2016-Jun-25 17:34N 59°20' E 010°31'0 0.0
2016-Jun-25 16:34N 59°20' E 010°31'0 0.0
2016-Jun-25 15:34N 59°20' E 010°31'0 0.0
2016-Jun-25 14:33N 59°20' E 010°31'0 0.0
2016-Jun-25 13:34N 59°20' E 010°31'0 0.0
2016-Jun-25 12:34N 59°20' E 010°31'0 0.0
2016-Jun-25 11:34N 59°20' E 010°31'0 0.0
2016-Jun-25 10:34N 59°20' E 010°31'0 0.0
2016-Jun-25 09:34N 59°20' E 010°31'0 0.0
2016-Jun-25 08:34N 59°20' E 010°31'0 0.0
2016-Jun-25 07:34N 59°20' E 010°31'0 0.0
2016-Jun-25 06:34N 59°20' E 010°31'0 0.0
2016-Jun-25 05:34N 59°20' E 010°31'0 0.0
2016-Jun-25 04:34N 59°20' E 010°31'0 0.0
2016-Jun-25 03:34N 59°20' E 010°31'0 0.0
2016-Jun-25 02:34N 59°20' E 010°31'0 0.0
2016-Jun-25 01:34N 59°20' E 010°31'0 0.0
2016-Jun-25 00:34N 59°20' E 010°31'0 0.0
2016-Jun-24 23:34N 59°20' E 010°31'0 0.0
2016-Jun-24 22:34N 59°20' E 010°31'0 0.0
2016-Jun-24 21:34N 59°20' E 010°31'0 0.0
2016-Jun-24 20:34N 59°20' E 010°31'0 0.0
2016-Jun-24 19:34N 59°20' E 010°31'0 0.0
2016-Jun-24 18:34N 59°20' E 010°31'0 0.0
2016-Jun-24 17:34N 59°20' E 010°31'0 0.0
2016-Jun-24 16:33N 59°20' E 010°31'0 0.0
2016-Jun-24 15:34N 59°20' E 010°31'0 0.0
2016-Jun-24 14:34N 59°20' E 010°31'0 0.0
2016-Jun-24 13:34N 59°20' E 010°31'0 0.0
2016-Jun-24 12:34N 59°20' E 010°31'0 0.0
2016-Jun-24 11:34N 59°20' E 010°31'0 0.0
2016-Jun-24 10:34N 59°20' E 010°31'0 0.0
2016-Jun-24 09:34N 59°20' E 010°31'0 0.0
2016-Jun-24 08:34N 59°20' E 010°31'0 0.1
2016-Jun-24 07:34N 59°20' E 010°31'0 0.0
2016-Jun-24 04:34N 59°20' E 010°31'0 0.0
2016-Jun-24 03:34N 59°20' E 010°31'0 0.0
2016-Jun-24 02:33N 59°20' E 010°31'0 0.0
2016-Jun-24 01:34N 59°20' E 010°31'0 0.0
2016-Jun-24 00:34N 59°20' E 010°31'0 0.0
2016-Jun-23 23:33N 59°20' E 010°31'0 0.0
2016-Jun-23 22:34N 59°20' E 010°31'5 4.9
2016-Jun-23 21:34N 59°15' E 010°35'1 0.9
2016-Jun-23 20:33N 59°16' E 010°34'4 4.1
2016-Jun-23 19:33N 59°20' E 010°31'0 0.1
2016-Jun-23 18:34N 59°20' E 010°31'0 0.0
2016-Jun-23 17:34N 59°20' E 010°31'0 0.0
2016-Jun-23 16:34N 59°20' E 010°31'0 0.0
2016-Jun-23 15:34N 59°20' E 010°31'0 0.0
2016-Jun-23 14:34N 59°20' E 010°31'1 0.9
2016-Jun-23 13:34N 59°20' E 010°31'1 0.9
2016-Jun-23 12:34N 59°20' E 010°31'0 0.0
2016-Jun-23 11:34N 59°20' E 010°31'0 0.0
2016-Jun-23 10:34N 59°20' E 010°31'0 0.0
2016-Jun-23 09:34N 59°20' E 010°31'0 0.0
2016-Jun-23 08:34N 59°20' E 010°31'0 0.0
2016-Jun-23 07:34N 59°20' E 010°31'0 0.0
2016-Jun-23 05:33N 59°20' E 010°31'0 0.0
2016-Jun-23 04:34N 59°20' E 010°31'0 0.0
2016-Jun-23 03:34N 59°20' E 010°31'0 0.0
2016-Jun-23 02:34N 59°20' E 010°31'0 0.0
2016-Jun-23 01:34N 59°20' E 010°31'0 0.0
2016-Jun-23 00:34N 59°20' E 010°31'0 0.0
2016-Jun-22 23:34N 59°20' E 010°31'0 0.0
2016-Jun-22 22:34N 59°20' E 010°31'0 0.0
2016-Jun-22 21:34N 59°20' E 010°31'0 0.0
2016-Jun-22 20:34N 59°20' E 010°31'0 0.0
2016-Jun-22 19:34N 59°20' E 010°31'0 0.0
2016-Jun-22 18:34N 59°20' E 010°31'0 0.0
2016-Jun-22 17:34N 59°20' E 010°31'0 0.1
2016-Jun-22 16:34N 59°20' E 010°31'1 1.0
2016-Jun-22 15:34N 59°20' E 010°32'1 1.1
2016-Jun-22 14:34N 59°20' E 010°31'0 0.0
2016-Jun-22 13:34N 59°20' E 010°31'0 0.0
2016-Jun-22 12:34N 59°20' E 010°31'0 0.0
2016-Jun-22 11:34N 59°20' E 010°31'0 0.0
2016-Jun-22 10:34N 59°20' E 010°31'0 0.0
2016-Jun-22 09:34N 59°20' E 010°31'0 0.0
2016-Jun-22 08:34N 59°20' E 010°31'0 0.0
2016-Jun-22 07:34N 59°20' E 010°31'0 0.0
2016-Jun-22 06:34N 59°20' E 010°31'0 0.0
2016-Jun-22 05:34N 59°20' E 010°31'0 0.0
2016-Jun-22 04:33N 59°20' E 010°31'0 0.0
2016-Jun-22 03:34N 59°20' E 010°31'0 0.0
2016-Jun-22 02:34N 59°20' E 010°31'0 0.0
2016-Jun-22 01:34N 59°20' E 010°31'0 0.0
2016-Jun-22 00:34N 59°20' E 010°31'0 0.0
2016-Jun-21 23:34N 59°20' E 010°31'0 0.0
2016-Jun-21 22:34N 59°20' E 010°31'0 0.0
2016-Jun-21 21:33N 59°20' E 010°31'0 0.0
2016-Jun-21 20:34N 59°20' E 010°31'0 0.0
2016-Jun-21 19:34N 59°20' E 010°31'0 0.0
2016-Jun-21 18:34N 59°20' E 010°31'0 0.0
2016-Jun-21 17:34N 59°20' E 010°31'0 0.0
2016-Jun-21 16:34N 59°20' E 010°31'0 0.0
2016-Jun-21 15:34N 59°20' E 010°31'0 0.0
2016-Jun-21 14:34N 59°20' E 010°31'0 0.0
2016-Jun-21 13:33N 59°20' E 010°31'0 0.0
2016-Jun-21 12:34N 59°20' E 010°31'0 0.0
2016-Jun-21 11:34N 59°20' E 010°31'0 0.0
2016-Jun-21 10:34N 59°20' E 010°31'0 0.0
2016-Jun-21 09:34N 59°20' E 010°31'0 0.0
2016-Jun-21 08:33N 59°20' E 010°31'0 0.0
2016-Jun-21 07:34N 59°20' E 010°31'0 0.0
2016-Jun-21 05:33N 59°20' E 010°31'0 0.0
2016-Jun-21 04:34N 59°20' E 010°31'0 0.0
2016-Jun-21 03:34N 59°20' E 010°31'0 0.0
2016-Jun-21 02:34N 59°20' E 010°31'0 0.0
2016-Jun-21 01:34N 59°20' E 010°31'0 0.0
2016-Jun-21 00:34N 59°20' E 010°31'0 0.0
2016-Jun-20 23:34N 59°20' E 010°31'0 0.2
2016-Jun-20 22:34N 59°20' E 010°31'0 0.2
2016-Jun-20 21:34N 59°20' E 010°31'0 0.0
2016-Jun-20 20:34N 59°20' E 010°31'0 0.1
2016-Jun-20 19:34N 59°20' E 010°31'1 0.7
2016-Jun-20 18:34N 59°20' E 010°30'3 2.6
2016-Jun-20 17:34N 59°23' E 010°30'2 2.4
2016-Jun-20 16:34N 59°21' E 010°32'1 1.4
2016-Jun-20 15:34N 59°20' E 010°31'0 0.0
2016-Jun-20 14:34N 59°20' E 010°31'0 0.0
2016-Jun-20 13:34N 59°20' E 010°31'0 0.0
2016-Jun-20 12:34N 59°20' E 010°31'0 0.0
2016-Jun-20 11:34N 59°20' E 010°31'0 0.0
2016-Jun-20 10:34N 59°20' E 010°31'0 0.0
2016-Jun-20 09:34N 59°20' E 010°31'0 0.0
2016-Jun-20 08:34N 59°20' E 010°31'0 0.0
2016-Jun-20 07:33N 59°20' E 010°31'0 0.0
2016-Jun-20 06:34N 59°20' E 010°31'0 0.0
2016-Jun-20 05:34N 59°20' E 010°31'0 0.3
2016-Jun-20 04:34N 59°20' E 010°31'0 0.3
2016-Jun-20 03:34N 59°20' E 010°31'0 0.0
2016-Jun-20 02:34N 59°20' E 010°31'0 0.0
2016-Jun-20 01:34N 59°20' E 010°31'0 0.0
2016-Jun-20 00:34N 59°20' E 010°31'0 0.0
2016-Jun-19 23:34N 59°20' E 010°31'0 0.0
2016-Jun-19 22:34N 59°20' E 010°31'0 0.0
2016-Jun-19 21:34N 59°20' E 010°31'0 0.0
2016-Jun-19 20:34N 59°20' E 010°31'0 0.0
2016-Jun-19 19:34N 59°20' E 010°31'0 0.0
2016-Jun-19 18:34N 59°20' E 010°31'0 0.0
2016-Jun-19 17:34N 59°20' E 010°31'0 0.0
2016-Jun-19 16:34N 59°20' E 010°31'0 0.0
2016-Jun-19 15:34N 59°20' E 010°31'0 0.0
2016-Jun-19 14:34N 59°20' E 010°31'0 0.0
2016-Jun-19 13:34N 59°20' E 010°31'0 0.0
2016-Jun-19 12:34N 59°20' E 010°31'0 0.0
2016-Jun-19 11:33N 59°20' E 010°31'0 0.0
2016-Jun-19 10:34N 59°20' E 010°31'0 0.0
2016-Jun-19 09:34N 59°20' E 010°31'0 0.0
2016-Jun-19 08:33N 59°20' E 010°31'0 0.0
2016-Jun-19 07:34N 59°20' E 010°31'0 0.0
2016-Jun-19 06:33N 59°20' E 010°31'0 0.0
2016-Jun-19 05:34N 59°20' E 010°31'0 0.0
2016-Jun-19 04:34N 59°20' E 010°31'0 0.0
2016-Jun-19 03:34N 59°20' E 010°31'2 2.4
2016-Jun-19 02:33N 59°18' E 010°34'3 3.4
2016-Jun-19 01:34N 59°14' E 010°36'6 5.7
2016-Jun-19 00:34N 59°20' E 010°31'0 0.4
2016-Jun-18 23:34N 59°20' E 010°32'3 3.3
2016-Jun-18 22:34N 59°17' E 010°35'7 6.8
2016-Jun-18 21:34N 59°10' E 010°40'6 5.9
2016-Jun-18 20:34N 59°16' E 010°35'4 4.3
2016-Jun-18 19:34N 59°20' E 010°31'1 0.8
2016-Jun-18 18:34N 59°20' E 010°31'1 0.8
2016-Jun-18 17:34N 59°20' E 010°31'0 0.0
2016-Jun-18 16:34N 59°20' E 010°31'0 0.0
2016-Jun-18 15:34N 59°20' E 010°31'0 0.0
2016-Jun-18 14:34N 59°20' E 010°31'0 0.0
2016-Jun-18 13:34N 59°20' E 010°31'0 0.0
2016-Jun-18 12:34N 59°20' E 010°31'0 0.0
2016-Jun-18 11:34N 59°20' E 010°31'0 0.0
2016-Jun-18 10:34N 59°20' E 010°31'1 0.9
2016-Jun-18 09:34N 59°20' E 010°32'1 0.9
2016-Jun-18 08:34N 59°20' E 010°31'0 0.0
2016-Jun-18 07:34N 59°20' E 010°31'0 0.0
2016-Jun-18 06:34N 59°20' E 010°31'0 0.0
2016-Jun-18 05:34N 59°20' E 010°31'0 0.0
2016-Jun-18 04:34N 59°20' E 010°31'0 0.0
2016-Jun-18 03:34N 59°20' E 010°31'0 0.0
2016-Jun-18 02:34N 59°20' E 010°31'0 0.0
2016-Jun-18 01:34N 59°20' E 010°31'0 0.0
2016-Jun-18 00:34N 59°20' E 010°31'0 0.0
2016-Jun-17 23:34N 59°20' E 010°31'0 0.3
2016-Jun-17 22:34N 59°20' E 010°31'0 0.3
2016-Jun-17 21:34N 59°20' E 010°31'  

Dump ship's entire track history